Flight Track Log - Related Links

Times and Time Zones

All times are in EDT time to prevent confusion due to time zone crossing. See the DAL1387 flight status page for this flight to view local times or setup timezone preferences in your user account.

Time Position Orientation Groundspeed Altitude Reporting Facility
EDT Latitude Longitude Course Direction KTS MPH feet Rate Location/Type
01:00PM 33.6269 -84.3606 121° Southeast 466 536 2,500  Level Atlanta Center
01:01PM 33.5958 -84.2908 118° Southeast 359 413 4,400 2,300 Climbing Atlanta Center
01:02PM 33.5164 -84.2756 171° South 250 288 7,100 2,700 Climbing Atlanta Center
01:03PM 33.4392 -84.2778 181° South 291 335 9,800 1,800 Climbing Atlanta Center
01:04PM 33.3494 -84.2800 181° South 299 344 10,700 2,000 Climbing Atlanta Center
01:05PM 33.0880 -83.9760 121° Southeast  Level FlightAware Approximate
01:05PM 33.2556 -84.2972 189° South 324 373 13,800  Level Atlanta Center
01:06PM 33.1678 -84.2522 157° South 332 382 15,500 1,450 Climbing Atlanta Center
01:07PM 33.0761 -84.1728 144° Southeast 358 412 16,700 1,600 Climbing Atlanta Center
01:08PM 32.9803 -84.0908 144° Southeast 386 444 18,700 1,950 Climbing Atlanta Center
01:09PM 32.8842 -84.0067 144° Southeast 416 479 20,600 1,650 Climbing Atlanta Center
01:10PM 32.7839 -83.9203 144° Southeast 435 501 22,000 1,450 Climbing Atlanta Center
01:11PM 32.6817 -83.8364 145° Southeast 440 506 23,500 1,400 Climbing Atlanta Center
01:12PM 32.5769 -83.7481 145° Southeast 453 521 24,800 1,200 Climbing Atlanta Center
01:13PM 32.4703 -83.6572 144° Southeast 460 529 25,900 1,250 Climbing Atlanta Center
01:14PM 32.3636 -83.5667 144° Southeast 467 537 27,300 1,150 Climbing Atlanta Center
01:15PM 32.2672 -83.4861 145° Southeast 472 543 28,200 900 Climbing Atlanta Center
01:16PM 32.1581 -83.3936 144° Southeast 472 543 29,100 944 Climbing Atlanta Center
01:17PM 32.0572 -83.3069 144° Southeast 472 543 29,900 1,111 Climbing Jacksonville Center
01:18PM 31.9553 -83.2256 146° Southeast 486 559 31,100 1,450 Climbing Jacksonville Center
01:19PM 31.8489 -83.1394 145° Southeast 486 559 32,800 1,450 Climbing Jacksonville Center
01:20PM 31.7447 -83.0564 146° Southeast 473 544 34,000 600 Climbing Jacksonville Center
01:21PM 31.6403 -82.9658 144° Southeast 468 539 34,000  Level Jacksonville Center
01:22PM 31.5444 -82.8583 136° Southeast 468 539 34,000  Level Jacksonville Center
01:23PM 31.4567 -82.7539 135° Southeast 468 539 34,000  Level Jacksonville Center
01:24PM 31.3603 -82.6469 137° Southeast 468 539 34,000  Level Jacksonville Center
01:25PM 31.2558 -82.5378 138° Southeast 463 533 34,000  Level Jacksonville Center
01:26PM 31.1636 -82.4314 135° Southeast 463 533 34,000 -50 Level Jacksonville Center
01:27PM 31.0711 -82.3275 136° Southeast 463 533 33,900 -50 Descending Jacksonville Center
01:28PM 30.9789 -82.2239 136° Southeast 463 533 33,900 50 Level Jacksonville Center
01:29PM 30.8864 -82.1203 136° Southeast 463 533 34,000 50 Climbing Jacksonville Center
01:30PM 30.7939 -82.0147 136° Southeast 463 533 34,000  Level Jacksonville Center
01:31PM 30.7011 -81.9142 137° Southeast 463 533 34,000  Level Jacksonville Center
01:32PM 30.6106 -81.8089 135° Southeast 458 527 34,000  Level Jacksonville Center
01:33PM 30.5178 -81.7061 136° Southeast 460 529 34,000 -50 Level Jacksonville Center
01:34PM 30.4250 -81.6014 136° Southeast 460 529 33,900 -50 Descending Jacksonville Center
01:35PM 30.3300 -81.5039 138° Southeast 460 529 33,900 50 Level Jacksonville Center
01:36PM 30.2206 -81.4189 146° Southeast 460 529 34,000 50 Climbing Jacksonville Center
01:37PM 30.1150 -81.3389 147° Southeast 460 529 34,000  Level Jacksonville Center
01:38PM 30.0203 -81.2661 146° Southeast 460 529 34,000  Level Jacksonville Center
01:39PM 29.9147 -81.1839 146° Southeast 460 529 34,000  Level Jacksonville Center
01:40PM 29.8092 -81.1022 146° Southeast 460 529 34,000  Level Jacksonville Center
01:41PM 29.6994 -81.0206 147° Southeast 460 529 34,000  Level Jacksonville Center
01:42PM 29.5897 -80.9389 147° Southeast 466 536 34,000  Level Jacksonville Center
01:44PM 29.3947 -80.7858 146° Southeast 468 539 34,000  Level Miami Center
01:45PM 29.2844 -80.7019 146° Southeast 472 543 34,000  Level Miami Center
01:46PM 29.1731 -80.6183 147° Southeast 473 544 34,000  Level Miami Center
01:47PM 29.0625 -80.5333 146° Southeast 475 547 34,000  Level Miami Center
01:48PM 28.9294 -80.4336 147° Southeast 476 548 34,000  Level Miami Center
01:49PM 28.8183 -80.3508 147° Southeast 474 545 34,000  Level Miami Center
01:50PM 28.7028 -80.2644 147° Southeast 474 545 34,000  Level Miami Center
01:51PM 28.5889 -80.1775 146° Southeast 474 545 34,000  Level Miami Center
01:52PM 28.4747 -80.0933 147° Southeast 471 542 34,000  Level Miami Center
01:53PM 28.3617 -80.0075 146° Southeast 470 541 34,000 -48 Level Miami Center
01:54PM 28.2750 -79.8911 130° Southeast 469 540 33,900  Descending Miami Center
01:55PM 28.1972 -79.7722 127° Southeast 469 540 34,000 48 Climbing Miami Center
01:56PM 28.1186 -79.6547 127° Southeast 469 540 34,000  Level Miami Center
01:57PM 28.0408 -79.5364 127° Southeast 469 540 34,000  Level Miami Center
01:58PM 27.9619 -79.4181 127° Southeast 469 540 34,000  Level Miami Center
01:59PM 27.8711 -79.2817 127° Southeast 469 540 34,000  Level Miami Center
02:00PM 27.7883 -79.1592 127° Southeast 468 539 34,000  Level Miami Center
02:01PM 27.7072 -79.0381 127° Southeast 468 539 34,000  Level Miami Center
02:02PM 27.6247 -78.9158 127° Southeast 468 539 34,000  Level Miami Center
02:03PM 27.5419 -78.7939 127° Southeast 468 539 34,000 97 Level Miami Center
02:04PM 27.4658 -78.6817 127° Southeast 469 540 34,200 484 Climbing Miami Center
02:06PM 27.3881 -78.5675 127° Southeast 467 537 35,000 384 Climbing Miami Center
02:07PM 27.3086 -78.4494 127° Southeast 467 537 35,000 -48 Level Miami Center
02:08PM 27.2122 -78.3092 128° Southeast 467 537 34,900 -48 Descending Miami Center
02:09PM 27.1333 -78.1892 126° Southeast 468 539 34,900 48 Level Miami Center
02:10PM 27.0675 -78.0625 120° Southeast 468 539 35,000 48 Climbing Miami Center
02:11PM 27.0006 -77.9361 121° Southeast 469 540 35,000  Level Miami Center
02:12PM 26.9239 -77.8172 126° Southeast 469 540 35,000  Level Miami Center
02:13PM 26.8475 -77.6981 126° Southeast 468 539 35,000  Level Miami Center
02:14PM 26.7706 -77.5792 126° Southeast 470 541 35,000  Level Miami Center
02:15PM 26.6781 -77.4358 126° Southeast 470 541 35,000  Level Miami Center
02:16PM 26.6494 -77.2958 103° East 463 533 35,000 -48 Level Miami Center
02:17PM 26.6364 -77.1536 96° East 462 532 34,900 -48 Descending Miami Center
02:18PM 26.6217 -77.0122 97° East 456 525 34,900  Level Miami Center
02:19PM 26.6072 -76.8717 97° East 458 527 34,900 48 Level Miami Center
02:20PM 26.5950 -76.7319 96° East 457 526 35,000 48 Climbing Miami Center
02:21PM 26.5803 -76.5628 96° East 455 524 35,000  Level Miami Center
02:22PM 26.5686 -76.4228 95° East 455 524 35,000  Level Miami Center
02:23PM 26.5319 -76.2911 107° East 451 519 35,000  Level Miami Center
02:24PM 26.4531 -76.1764 128° Southeast 461 531 35,000  Level Miami Center
02:25PM 26.3661 -76.0528 128° Southeast 464 534 35,000  Level Miami Center
02:26PM 26.2872 -75.9397 128° Southeast 459 528 35,000  Level Miami Center
02:27PM 26.2078 -75.8283 128° Southeast 459 528 35,000  Level Miami Center
02:28PM 26.1208 -75.7050 128° Southeast 459 528 35,000  Level Miami Center
02:29PM 26.0414 -75.5933 128° Southeast 458 527 35,000  Level Miami Center
02:30PM 25.9631 -75.4831 128° Southeast 457 526 35,000  Level Miami Center
02:31PM 25.8781 -75.3611 128° Southeast 455 524 35,000  Level Miami Center
02:32PM 25.7983 -75.2506 129° Southeast 455 524 35,000  Level Miami Center
02:33PM 25.7267 -75.1500 128° Southeast 455 524 35,000  Level Miami Center
02:35PM 25.6483 -75.0403 128° Southeast 455 524 35,000  Level Miami Center
02:36PM 25.5536 -74.9081 128° Southeast 454 522 35,000  Level Miami Center
02:37PM 25.4747 -74.8006 129° Southeast 450 518 35,000  Level Miami Center
02:38PM 25.3983 -74.6931 128° Southeast 441 507 35,000  Level Miami Center
02:39PM 25.3206 -74.5864 129° Southeast 443 510 35,000  Level Miami Center
02:40PM 25.2444 -74.4808 129° Southeast 442 509 35,000  Level Miami Center
02:41PM 25.1678 -74.3753 129° Southeast 439 505 35,000  Level Miami Center
02:42PM 25.0903 -74.2697 129° Southeast 439 505 35,000  Level Miami Center
02:43PM 24.9975 -74.1422 129° Southeast 440 506 35,000  Level Miami Center
02:44PM 24.9197 -74.0358 129° Southeast 441 507 35,000  Level Miami Center
02:45PM 24.8439 -73.9319 129° Southeast 441 507 35,000  Level Miami Center
02:46PM 24.7661 -73.8239 128° Southeast 441 507 35,000  Level Miami Center
02:47PM 24.6878 -73.7183 129° Southeast 442 509 35,000  Level Miami Center
02:48PM 24.6100 -73.6122 129° Southeast 443 510 35,000  Level Miami Center
02:49PM 24.5328 -73.5033 128° Southeast 448 516 35,000  Level Miami Center
02:50PM 24.4458 -73.3706 126° Southeast 448 516 35,000  Level Miami Center
02:51PM 24.3717 -73.2583 126° Southeast 448 516 35,000  Level Miami Center
02:52PM 24.2986 -73.1481 126° Southeast 448 516 35,000  Level Miami Center
02:53PM 24.2269 -73.0378 125° Southeast 447 514 35,000  Level Miami Center
02:54PM 24.1542 -72.9283 126° Southeast 447 514 35,000  Level Miami Center
02:55PM 24.0806 -72.8194 127° Southeast 447 514 35,000  Level Miami Center
02:56PM 24.0081 -72.7106 126° Southeast 443 510 35,000  Level Miami Center
02:57PM 23.9203 -72.5783 126° Southeast 443 510 35,000  Level Miami Center
02:58PM 23.8456 -72.4653 126° Southeast 445 512 35,000  Level Miami Center
02:59PM 23.7714 -72.3547 126° Southeast 446 513 35,000  Level Miami Center
03:00PM 23.6978 -72.2453 126° Southeast 447 514 35,000  Level Miami Center
03:01PM 23.6239 -72.1344 126° Southeast 447 514 35,000  Level Miami Center
03:02PM 23.5500 -72.0250 126° Southeast 447 514 35,000  Level Miami Center
03:03PM 23.4742 -71.9153 126° Southeast 448 516 35,000  Level Miami Center
03:04PM 23.4705 -71.9071 126° Southeast  Level FlightAware Approximate
03:04PM 23.3869 -71.7831 126° Southeast 448 516 35,000  Level Miami Center
03:06PM 23.3125 -71.6714 126° Southeast 448 516 35,000  Level Miami Center
03:07PM 23.2367 -71.5636 127° Southeast 448 516 35,000  Level Miami Center
03:08PM 23.1625 -71.4536 126° Southeast 448 516 35,000  Level Miami Center
03:09PM 23.0881 -71.3450 127° Southeast 448 516 35,000  Level Miami Center
03:10PM 23.0136 -71.2369 127° Southeast 448 516 35,000  Level Miami Center
03:11PM 22.9392 -71.1292 127° Southeast 448 516 35,000  Level Miami Center
03:12PM 22.8639 -71.0197 127° Southeast 448 516 35,000  Level Miami Center
03:13PM 22.7736 -70.8881 127° Southeast 448 516 35,000  Level Miami Center
03:14PM 22.6983 -70.7794 127° Southeast 448 516 35,000  Level Miami Center
03:15PM 22.6231 -70.6714 127° Southeast 448 516 35,000  Level Miami Center
03:16PM 22.5453 -70.5600 127° Southeast 450 518 35,000  Level Miami Center
03:17PM 22.4683 -70.4494 127° Southeast 453 521 35,000  Level Miami Center
03:18PM 22.3931 -70.3403 127° Southeast 453 521 35,000  Level Miami Center
03:19PM 22.3172 -70.2308 127° Southeast 453 521 35,000  Level Miami Center
03:20PM 22.2250 -70.0994 127° Southeast 453 521 35,000  Level Miami Center
03:21PM 22.1481 -69.9903 127° Southeast 453 521 35,000  Level Miami Center
03:22PM 22.0725 -69.8828 127° Southeast 453 521 35,000  Level Miami Center
03:23PM 21.9975 -69.7747 127° Southeast 453 521 35,000  Level Miami Center
03:24PM 21.9208 -69.6656 127° Southeast 453 521 35,000  Level Miami Center
03:25PM 21.8447 -69.5578 127° Southeast 453 521 35,000  Level Miami Center
03:26PM 21.7681 -69.4486 127° Southeast 453 521 35,000  Level Miami Center
03:27PM 21.6767 -69.3186 127° Southeast 453 521 35,000  Level Miami Center
03:28PM 21.5983 -69.2100 128° Southeast 453 521 35,000  Level Miami Center
03:29PM 21.5208 -69.1025 128° Southeast 453 521 35,000  Level Miami Center
03:30PM 21.4464 -68.9956 127° Southeast 453 521 35,000  Level Miami Center
03:31PM 21.3692 -68.8878 128° Southeast 453 521 35,000  Level Miami Center
03:32PM 21.2917 -68.7800 128° Southeast 453 521 35,000  Level Miami Center
03:33PM 21.2144 -68.6739 128° Southeast 453 521 35,000  Level Miami Center
03:34PM 21.1228 -68.5453 127° Southeast 452 520 35,000  Level Miami Center
03:35PM 21.0464 -68.4386 127° Southeast 452 520 35,000  Level Miami Center
03:36PM 20.9689 -68.3311 128° Southeast 452 520 35,000  Level Miami Center
03:38PM 20.8922 -68.2242 127° Southeast 452 520 35,000  Level Miami Center
03:39PM 20.8150 -68.1167 128° Southeast 452 520 35,000  Level Miami Center
03:40PM 20.6992 -68.0761 162° South 477 549 35,000  Level Miami Center
03:41PM 20.5469 -68.0747 180° South 468 539 35,000  Level Miami Center
03:42PM 20.4203 -68.0731 179° South 462 532 35,000  Level Miami Center
03:43PM 20.2931 -68.0722 180° South 459 528 35,000  Level Miami Center
03:44PM 20.1656 -68.0706 179° South 459 528 35,000  Level Miami Center
03:45PM 20.0444 -68.0400 167° South 463 533 35,000  Level Miami Center
03:46PM 19.9586 -67.9419 133° Southeast 461 531 35,000  Level Miami Center
03:47PM 19.8744 -67.8431 132° Southeast 455 524 35,000 -387 Level Miami Center
03:48PM 19.7708 -67.7261 133° Southeast 453 521 34,200 -871 Descending Miami Center
03:49PM 19.6808 -67.6292 135° Southeast 453 521 33,200 -971 Descending Miami Center
03:50PM 19.5667 -67.5167 137° Southeast 460 529 32,000 -1,254 Descending San Juan Center
03:51PM 19.4833 -67.4167 131° Southeast 450 518 30,400 -1,884 Descending San Juan Center
03:52PM 19.4000 -67.3333 137° Southeast 430 495 28,200 -2,132 Descending San Juan Center
03:53PM 19.3167 -67.2333 131° Southeast 430 495 26,100 -2,050 Descending San Juan Center
03:54PM 19.2333 -67.1500 137° Southeast 410 472 24,100 -2,050 Descending San Juan Center
03:55PM 19.1667 -67.0667 130° Southeast 400 460 22,000 -2,150 Descending San Juan Center
03:56PM 19.0667 -66.9500 132° Southeast 390 449 19,800 -2,000 Descending San Juan Center
03:57PM 19.0000 -66.8667 130° Southeast 390 449 18,000 -1,900 Descending San Juan Center
03:58PM 18.9167 -66.8000 143° Southeast 380 437 16,000 -2,083 Descending San Juan Center
03:59PM 18.8500 -66.7167 130° Southeast 370 426 13,800 -2,182 Descending San Juan Center
04:00PM 18.7833 -66.6333 130° Southeast 360 414 11,600 -1,700 Descending San Juan Center
04:01PM 18.7333 -66.5500 122° Southeast 330 380 10,400 -950 Descending San Juan Center
04:02PM 18.6833 -66.4833 128° Southeast 290 334 9,700 -1,200 Descending San Juan Center
04:03PM 18.6500 -66.4167 118° Southeast 270 311 8,000 -1,550 Descending San Juan Center
04:04PM 18.6000 -66.3667 137° Southeast 260 299 6,600 -1,150 Descending San Juan Center
04:05PM 18.5500 -66.3167 137° Southeast 220 253 5,700 -950 Descending San Juan Center
04:06PM 18.5000 -66.2833 148° Southeast 190 219 4,700 -900 Descending San Juan Center
04:07PM 18.4667 -66.2500 137° Southeast 160 184 3,900 -843 Descending San Juan Center
04:08PM 18.4333 -66.2167 137° Southeast 150 173 3,000 -694 Descending San Juan Center
04:09PM 18.4167 -66.1833 118° Southeast 160 184 2,500 -250 Descending San Juan Center
04:10PM 18.3833 -66.1500 136° Southeast 180 207 2,500 -350 Level San Juan Center
04:11PM 18.4000 -66.1000 71° East 170 196 1,800 -762 Descending San Juan Center
04:13PM 18.4333 -66.0167 67° East 150 173 200 -793 Descending San Juan Center

Login

Don't have an account? Register now (free) for customized features, flight alerts, and more!